sensor_id;sensor_type;location;lat;lon;timestamp;temperature;humidity
52030;DHT22;38043;53.224;6.580;2023-05-16T00:00:16;8.60;99.90
52030;DHT22;38043;53.224;6.580;2023-05-16T00:02:42;8.60;99.90
52030;DHT22;38043;53.224;6.580;2023-05-16T00:05:08;8.60;99.90
52030;DHT22;38043;53.224;6.580;2023-05-16T00:07:35;8.50;99.90
52030;DHT22;38043;53.224;6.580;2023-05-16T00:10:01;8.60;99.90
52030;DHT22;38043;53.224;6.580;2023-05-16T00:12:26;8.50;99.90
52030;DHT22;38043;53.224;6.580;2023-05-16T00:14:52;8.50;99.90
52030;DHT22;38043;53.224;6.580;2023-05-16T00:17:18;8.60;99.90
52030;DHT22;38043;53.224;6.580;2023-05-16T00:19:45;8.50;99.90
52030;DHT22;38043;53.224;6.580;2023-05-16T00:22:11;8.50;99.90
52030;DHT22;38043;53.224;6.580;2023-05-16T00:24:37;8.40;99.90
52030;DHT22;38043;53.224;6.580;2023-05-16T00:27:02;8.30;99.90
52030;DHT22;38043;53.224;6.580;2023-05-16T00:29:31;8.40;99.90
52030;DHT22;38043;53.224;6.580;2023-05-16T00:31:56;8.30;99.90
52030;DHT22;38043;53.224;6.580;2023-05-16T00:34:22;8.40;99.90
52030;DHT22;38043;53.224;6.580;2023-05-16T00:36:51;8.30;99.90
52030;DHT22;38043;53.224;6.580;2023-05-16T00:39:16;8.30;99.90
52030;DHT22;38043;53.224;6.580;2023-05-16T00:41:42;8.30;99.90
52030;DHT22;38043;53.224;6.580;2023-05-16T00:44:08;8.30;99.90
52030;DHT22;38043;53.224;6.580;2023-05-16T00:46:33;8.20;99.90
52030;DHT22;38043;53.224;6.580;2023-05-16T00:48:59;8.30;99.90
52030;DHT22;38043;53.224;6.580;2023-05-16T00:51:25;8.30;99.90
52030;DHT22;38043;53.224;6.580;2023-05-16T00:53:51;8.30;99.90
52030;DHT22;38043;53.224;6.580;2023-05-16T00:56:16;8.30;99.90
52030;DHT22;38043;53.224;6.580;2023-05-16T00:58:42;8.30;99.90
52030;DHT22;38043;53.224;6.580;2023-05-16T01:01:09;8.30;99.90
52030;DHT22;38043;53.224;6.580;2023-05-16T01:03:36;8.30;99.90
52030;DHT22;38043;53.224;6.580;2023-05-16T01:06:03;8.30;99.90
52030;DHT22;38043;53.224;6.580;2023-05-16T01:08:28;8.40;99.90
52030;DHT22;38043;53.224;6.580;2023-05-16T01:10:59;8.40;99.90
52030;DHT22;38043;53.224;6.580;2023-05-16T01:13:30;8.40;99.90
52030;DHT22;38043;53.224;6.580;2023-05-16T01:16:19;8.30;99.90
52030;DHT22;38043;53.224;6.580;2023-05-16T01:18:51;8.30;99.90
52030;DHT22;38043;53.224;6.580;2023-05-16T01:21:22;8.40;99.90
52030;DHT22;38043;53.224;6.580;2023-05-16T01:23:59;8.40;99.90
52030;DHT22;38043;53.224;6.580;2023-05-16T01:26:27;8.20;99.90
52030;DHT22;38043;53.224;6.580;2023-05-16T01:28:54;8.20;99.90
52030;DHT22;38043;53.224;6.580;2023-05-16T01:31:20;8.30;99.90
52030;DHT22;38043;53.224;6.580;2023-05-16T01:33:46;8.10;99.90
52030;DHT22;38043;53.224;6.580;2023-05-16T01:36:14;8.10;99.90
52030;DHT22;38043;53.224;6.580;2023-05-16T01:38:43;8.10;99.90
52030;DHT22;38043;53.224;6.580;2023-05-16T01:41:20;8.10;99.90
52030;DHT22;38043;53.224;6.580;2023-05-16T01:43:49;8.00;99.90
52030;DHT22;38043;53.224;6.580;2023-05-16T01:46:20;8.10;99.90
52030;DHT22;38043;53.224;6.580;2023-05-16T01:48:52;8.00;99.90
52030;DHT22;38043;53.224;6.580;2023-05-16T01:51:20;7.90;99.90
52030;DHT22;38043;53.224;6.580;2023-05-16T01:53:46;7.90;99.90
52030;DHT22;38043;53.224;6.580;2023-05-16T01:56:14;7.90;99.90
52030;DHT22;38043;53.224;6.580;2023-05-16T01:58:40;7.90;99.90
52030;DHT22;38043;53.224;6.580;2023-05-16T02:01:07;7.90;99.90
52030;DHT22;38043;53.224;6.580;2023-05-16T02:03:33;8.00;99.90
52030;DHT22;38043;53.224;6.580;2023-05-16T02:05:58;7.90;99.90
52030;DHT22;38043;53.224;6.580;2023-05-16T02:08:24;7.90;99.90
52030;DHT22;38043;53.224;6.580;2023-05-16T02:10:51;7.90;99.90
52030;DHT22;38043;53.224;6.580;2023-05-16T02:13:19;7.90;99.90
52030;DHT22;38043;53.224;6.580;2023-05-16T02:15:45;7.90;99.90
52030;DHT22;38043;53.224;6.580;2023-05-16T02:18:10;7.90;99.90
52030;DHT22;38043;53.224;6.580;2023-05-16T02:20:36;7.90;99.90
52030;DHT22;38043;53.224;6.580;2023-05-16T02:23:04;7.90;99.90
52030;DHT22;38043;53.224;6.580;2023-05-16T02:25:29;8.00;99.90
52030;DHT22;38043;53.224;6.580;2023-05-16T02:27:54;8.00;99.90
52030;DHT22;38043;53.224;6.580;2023-05-16T02:30:20;8.00;99.90
52030;DHT22;38043;53.224;6.580;2023-05-16T02:32:46;8.00;99.90
52030;DHT22;38043;53.224;6.580;2023-05-16T02:35:13;8.10;99.90
52030;DHT22;38043;53.224;6.580;2023-05-16T02:37:39;8.00;99.90
52030;DHT22;38043;53.224;6.580;2023-05-16T02:40:05;8.00;99.90
52030;DHT22;38043;53.224;6.580;2023-05-16T02:42:31;8.00;99.90
52030;DHT22;38043;53.224;6.580;2023-05-16T02:44:57;8.00;99.90
52030;DHT22;38043;53.224;6.580;2023-05-16T02:47:22;8.00;99.90
52030;DHT22;38043;53.224;6.580;2023-05-16T02:49:50;8.00;99.90
52030;DHT22;38043;53.224;6.580;2023-05-16T02:52:19;7.90;99.90
52030;DHT22;38043;53.224;6.580;2023-05-16T02:54:44;7.90;99.90
52030;DHT22;38043;53.224;6.580;2023-05-16T02:57:10;8.00;99.90
52030;DHT22;38043;53.224;6.580;2023-05-16T02:59:36;7.90;99.90
52030;DHT22;38043;53.224;6.580;2023-05-16T03:02:01;7.90;99.90
52030;DHT22;38043;53.224;6.580;2023-05-16T03:04:27;7.90;99.90
52030;DHT22;38043;53.224;6.580;2023-05-16T03:06:53;8.10;99.90
52030;DHT22;38043;53.224;6.580;2023-05-16T03:09:19;8.00;99.90
52030;DHT22;38043;53.224;6.580;2023-05-16T03:11:44;8.00;99.90
52030;DHT22;38043;53.224;6.580;2023-05-16T03:14:10;8.00;99.90
52030;DHT22;38043;53.224;6.580;2023-05-16T03:16:36;8.00;99.90
52030;DHT22;38043;53.224;6.580;2023-05-16T03:19:03;8.00;99.90
52030;DHT22;38043;53.224;6.580;2023-05-16T03:21:28;8.00;99.90
52030;DHT22;38043;53.224;6.580;2023-05-16T03:23:54;8.00;99.90
52030;DHT22;38043;53.224;6.580;2023-05-16T03:26:20;8.00;99.90
52030;DHT22;38043;53.224;6.580;2023-05-16T03:28:47;7.90;99.90
52030;DHT22;38043;53.224;6.580;2023-05-16T03:31:13;7.90;99.90
52030;DHT22;38043;53.224;6.580;2023-05-16T03:33:38;7.90;99.90
52030;DHT22;38043;53.224;6.580;2023-05-16T03:36:04;7.90;99.90
52030;DHT22;38043;53.224;6.580;2023-05-16T03:38:29;7.90;99.90
52030;DHT22;38043;53.224;6.580;2023-05-16T03:40:55;7.90;99.90
52030;DHT22;38043;53.224;6.580;2023-05-16T03:43:20;7.90;99.90
52030;DHT22;38043;53.224;6.580;2023-05-16T03:45:46;7.90;99.90
52030;DHT22;38043;53.224;6.580;2023-05-16T03:48:11;8.10;99.90
52030;DHT22;38043;53.224;6.580;2023-05-16T03:50:37;7.90;99.90
52030;DHT22;38043;53.224;6.580;2023-05-16T03:53:03;7.90;99.90
52030;DHT22;38043;53.224;6.580;2023-05-16T03:55:29;7.90;99.90
52030;DHT22;38043;53.224;6.580;2023-05-16T03:57:55;7.90;99.90
52030;DHT22;38043;53.224;6.580;2023-05-16T04:00:21;7.90;99.90
52030;DHT22;38043;53.224;6.580;2023-05-16T04:02:46;7.90;99.90
52030;DHT22;38043;53.224;6.580;2023-05-16T04:05:12;7.90;99.90
52030;DHT22;38043;53.224;6.580;2023-05-16T04:07:38;7.90;99.90
52030;DHT22;38043;53.224;6.580;2023-05-16T04:10:04;7.90;99.90
52030;DHT22;38043;53.224;6.580;2023-05-16T04:12:29;7.90;99.90
52030;DHT22;38043;53.224;6.580;2023-05-16T04:14:55;7.80;99.90
52030;DHT22;38043;53.224;6.580;2023-05-16T04:17:21;7.80;99.90
52030;DHT22;38043;53.224;6.580;2023-05-16T04:19:46;7.90;99.90
52030;DHT22;38043;53.224;6.580;2023-05-16T04:22:12;7.80;99.90
52030;DHT22;38043;53.224;6.580;2023-05-16T04:24:40;7.80;99.90
52030;DHT22;38043;53.224;6.580;2023-05-16T04:27:06;7.80;99.90
52030;DHT22;38043;53.224;6.580;2023-05-16T04:29:34;7.80;99.90
52030;DHT22;38043;53.224;6.580;2023-05-16T04:32:00;7.90;99.90
52030;DHT22;38043;53.224;6.580;2023-05-16T04:34:26;7.80;99.90
52030;DHT22;38043;53.224;6.580;2023-05-16T04:36:52;7.90;99.90
52030;DHT22;38043;53.224;6.580;2023-05-16T04:39:18;7.90;99.90
52030;DHT22;38043;53.224;6.580;2023-05-16T04:41:43;8.00;99.90
52030;DHT22;38043;53.224;6.580;2023-05-16T04:44:09;8.00;99.90
52030;DHT22;38043;53.224;6.580;2023-05-16T04:46:35;8.10;99.90
52030;DHT22;38043;53.224;6.580;2023-05-16T04:49:01;8.10;99.90
52030;DHT22;38043;53.224;6.580;2023-05-16T04:51:26;8.10;99.90
52030;DHT22;38043;53.224;6.580;2023-05-16T04:53:52;8.20;99.90
52030;DHT22;38043;53.224;6.580;2023-05-16T04:56:17;8.30;99.90
52030;DHT22;38043;53.224;6.580;2023-05-16T04:58:43;8.40;99.90
52030;DHT22;38043;53.224;6.580;2023-05-16T05:01:08;8.40;99.90
52030;DHT22;38043;53.224;6.580;2023-05-16T05:03:34;8.60;99.90
52030;DHT22;38043;53.224;6.580;2023-05-16T05:06:00;8.50;99.90
52030;DHT22;38043;53.224;6.580;2023-05-16T05:08:25;8.60;99.90
52030;DHT22;38043;53.224;6.580;2023-05-16T05:10:51;8.70;99.90
52030;DHT22;38043;53.224;6.580;2023-05-16T05:13:16;8.90;99.90
52030;DHT22;38043;53.224;6.580;2023-05-16T05:15:42;9.00;99.90
52030;DHT22;38043;53.224;6.580;2023-05-16T05:18:08;8.90;99.90
52030;DHT22;38043;53.224;6.580;2023-05-16T05:20:33;9.00;99.90
52030;DHT22;38043;53.224;6.580;2023-05-16T05:22:59;9.00;99.90
52030;DHT22;38043;53.224;6.580;2023-05-16T05:25:25;8.90;99.90
52030;DHT22;38043;53.224;6.580;2023-05-16T05:27:50;9.00;99.90
52030;DHT22;38043;53.224;6.580;2023-05-16T05:30:16;9.10;99.90
52030;DHT22;38043;53.224;6.580;2023-05-16T05:32:41;9.30;99.90
52030;DHT22;38043;53.224;6.580;2023-05-16T05:35:07;9.50;99.90
52030;DHT22;38043;53.224;6.580;2023-05-16T05:37:32;9.60;99.90
52030;DHT22;38043;53.224;6.580;2023-05-16T05:39:58;9.90;99.90
52030;DHT22;38043;53.224;6.580;2023-05-16T05:42:24;10.00;99.90
52030;DHT22;38043;53.224;6.580;2023-05-16T05:44:52;10.10;99.90
52030;DHT22;38043;53.224;6.580;2023-05-16T05:47:21;10.30;99.90
52030;DHT22;38043;53.224;6.580;2023-05-16T05:49:47;10.40;99.90
52030;DHT22;38043;53.224;6.580;2023-05-16T05:52:12;10.30;99.90
52030;DHT22;38043;53.224;6.580;2023-05-16T05:54:38;10.50;99.90
52030;DHT22;38043;53.224;6.580;2023-05-16T05:57:03;10.80;99.90
52030;DHT22;38043;53.224;6.580;2023-05-16T05:59:29;11.00;99.90
52030;DHT22;38043;53.224;6.580;2023-05-16T06:01:54;11.30;99.90
52030;DHT22;38043;53.224;6.580;2023-05-16T06:04:20;11.40;99.90
52030;DHT22;38043;53.224;6.580;2023-05-16T06:06:46;11.60;99.90
52030;DHT22;38043;53.224;6.580;2023-05-16T06:09:12;11.60;99.90
52030;DHT22;38043;53.224;6.580;2023-05-16T06:11:40;11.50;99.90
52030;DHT22;38043;53.224;6.580;2023-05-16T06:14:06;11.50;99.90
52030;DHT22;38043;53.224;6.580;2023-05-16T06:16:32;11.40;99.90
52030;DHT22;38043;53.224;6.580;2023-05-16T06:18:58;11.40;99.90
52030;DHT22;38043;53.224;6.580;2023-05-16T06:21:23;11.20;99.90
52030;DHT22;38043;53.224;6.580;2023-05-16T06:23:49;11.30;99.90
52030;DHT22;38043;53.224;6.580;2023-05-16T06:26:17;11.30;99.90
52030;DHT22;38043;53.224;6.580;2023-05-16T06:28:43;11.30;99.90
52030;DHT22;38043;53.224;6.580;2023-05-16T06:31:08;11.20;99.90
52030;DHT22;38043;53.224;6.580;2023-05-16T06:33:34;11.00;99.90
52030;DHT22;38043;53.224;6.580;2023-05-16T06:36:00;11.00;99.90
52030;DHT22;38043;53.224;6.580;2023-05-16T06:38:25;11.00;99.90
52030;DHT22;38043;53.224;6.580;2023-05-16T06:40:51;11.20;99.90
52030;DHT22;38043;53.224;6.580;2023-05-16T06:43:16;11.30;99.90
52030;DHT22;38043;53.224;6.580;2023-05-16T06:45:43;11.40;99.90
52030;DHT22;38043;53.224;6.580;2023-05-16T06:48:09;11.50;99.90
52030;DHT22;38043;53.224;6.580;2023-05-16T06:50:34;11.40;99.90
52030;DHT22;38043;53.224;6.580;2023-05-16T06:53:00;11.20;99.90
52030;DHT22;38043;53.224;6.580;2023-05-16T06:55:25;11.10;99.90
52030;DHT22;38043;53.224;6.580;2023-05-16T06:57:51;11.00;99.90
52030;DHT22;38043;53.224;6.580;2023-05-16T07:00:17;11.10;99.90
52030;DHT22;38043;53.224;6.580;2023-05-16T07:02:42;11.20;99.90
52030;DHT22;38043;53.224;6.580;2023-05-16T07:05:08;11.30;99.90
52030;DHT22;38043;53.224;6.580;2023-05-16T07:07:34;11.50;99.90
52030;DHT22;38043;53.224;6.580;2023-05-16T07:09:59;11.50;99.90
52030;DHT22;38043;53.224;6.580;2023-05-16T07:12:25;11.50;99.90
52030;DHT22;38043;53.224;6.580;2023-05-16T07:14:51;11.60;99.90
52030;DHT22;38043;53.224;6.580;2023-05-16T07:17:16;11.70;99.90
52030;DHT22;38043;53.224;6.580;2023-05-16T07:19:42;11.80;99.90
52030;DHT22;38043;53.224;6.580;2023-05-16T07:22:07;12.00;99.90
52030;DHT22;38043;53.224;6.580;2023-05-16T07:24:33;12.00;99.90
52030;DHT22;38043;53.224;6.580;2023-05-16T07:27:00;11.80;99.90
52030;DHT22;38043;53.224;6.580;2023-05-16T07:29:26;11.60;99.90
52030;DHT22;38043;53.224;6.580;2023-05-16T07:31:51;11.60;99.90
52030;DHT22;38043;53.224;6.580;2023-05-16T07:34:17;11.80;99.90
52030;DHT22;38043;53.224;6.580;2023-05-16T07:36:42;12.00;99.90
52030;DHT22;38043;53.224;6.580;2023-05-16T07:39:08;12.10;99.90
52030;DHT22;38043;53.224;6.580;2023-05-16T07:41:33;12.20;99.90
52030;DHT22;38043;53.224;6.580;2023-05-16T07:43:59;12.30;99.90
52030;DHT22;38043;53.224;6.580;2023-05-16T07:46:25;12.40;99.90
52030;DHT22;38043;53.224;6.580;2023-05-16T07:48:51;12.30;99.90
52030;DHT22;38043;53.224;6.580;2023-05-16T07:51:16;12.20;99.90
52030;DHT22;38043;53.224;6.580;2023-05-16T07:53:42;12.20;99.90
52030;DHT22;38043;53.224;6.580;2023-05-16T07:56:07;12.30;99.90
52030;DHT22;38043;53.224;6.580;2023-05-16T07:58:33;12.60;99.90
52030;DHT22;38043;53.224;6.580;2023-05-16T08:00:58;12.80;99.90
52030;DHT22;38043;53.224;6.580;2023-05-16T08:03:24;12.90;99.90
52030;DHT22;38043;53.224;6.580;2023-05-16T08:05:50;13.00;99.90
52030;DHT22;38043;53.224;6.580;2023-05-16T08:08:16;13.00;99.90
52030;DHT22;38043;53.224;6.580;2023-05-16T08:10:42;12.80;99.90
52030;DHT22;38043;53.224;6.580;2023-05-16T08:13:07;12.80;99.90
52030;DHT22;38043;53.224;6.580;2023-05-16T08:15:34;12.70;99.90
52030;DHT22;38043;53.224;6.580;2023-05-16T08:18:00;12.70;99.90
52030;DHT22;38043;53.224;6.580;2023-05-16T08:20:26;12.40;99.90
52030;DHT22;38043;53.224;6.580;2023-05-16T08:22:51;12.00;99.90
52030;DHT22;38043;53.224;6.580;2023-05-16T08:25:17;11.80;99.90
52030;DHT22;38043;53.224;6.580;2023-05-16T08:27:47;11.70;99.90
52030;DHT22;38043;53.224;6.580;2023-05-16T08:30:13;11.80;99.90
52030;DHT22;38043;53.224;6.580;2023-05-16T08:32:39;11.90;99.90
52030;DHT22;38043;53.224;6.580;2023-05-16T08:35:05;12.00;99.90
52030;DHT22;38043;53.224;6.580;2023-05-16T08:37:30;12.30;99.90
52030;DHT22;38043;53.224;6.580;2023-05-16T08:39:57;12.50;99.90
52030;DHT22;38043;53.224;6.580;2023-05-16T08:42:22;12.70;99.90
52030;DHT22;38043;53.224;6.580;2023-05-16T08:44:48;12.80;99.90
52030;DHT22;38043;53.224;6.580;2023-05-16T08:47:19;12.70;99.90
52030;DHT22;38043;53.224;6.580;2023-05-16T08:49:50;12.50;99.90
52030;DHT22;38043;53.224;6.580;2023-05-16T08:52:17;12.30;99.90
52030;DHT22;38043;53.224;6.580;2023-05-16T08:54:43;12.20;99.90
52030;DHT22;38043;53.224;6.580;2023-05-16T08:57:10;12.20;99.90
52030;DHT22;38043;53.224;6.580;2023-05-16T08:59:38;12.10;99.90
52030;DHT22;38043;53.224;6.580;2023-05-16T09:02:04;12.20;99.90
52030;DHT22;38043;53.224;6.580;2023-05-16T09:04:30;12.30;99.90
52030;DHT22;38043;53.224;6.580;2023-05-16T09:06:56;12.50;99.90
52030;DHT22;38043;53.224;6.580;2023-05-16T09:09:22;12.90;99.90
52030;DHT22;38043;53.224;6.580;2023-05-16T09:11:48;13.10;99.90
52030;DHT22;38043;53.224;6.580;2023-05-16T09:14:13;13.00;99.90
52030;DHT22;38043;53.224;6.580;2023-05-16T09:16:39;12.90;99.90
52030;DHT22;38043;53.224;6.580;2023-05-16T09:19:04;13.10;99.90
52030;DHT22;38043;53.224;6.580;2023-05-16T09:21:33;13.10;99.90
52030;DHT22;38043;53.224;6.580;2023-05-16T09:24:02;13.10;99.90
52030;DHT22;38043;53.224;6.580;2023-05-16T09:26:29;13.10;99.90
52030;DHT22;38043;53.224;6.580;2023-05-16T09:28:55;13.00;99.90
52030;DHT22;38043;53.224;6.580;2023-05-16T09:31:21;13.00;99.90
52030;DHT22;38043;53.224;6.580;2023-05-16T09:33:47;13.00;99.90
52030;DHT22;38043;53.224;6.580;2023-05-16T09:36:14;12.60;99.90
52030;DHT22;38043;53.224;6.580;2023-05-16T09:38:40;11.90;99.90
52030;DHT22;38043;53.224;6.580;2023-05-16T09:41:05;11.50;99.90
52030;DHT22;38043;53.224;6.580;2023-05-16T09:43:39;11.40;99.90
52030;DHT22;38043;53.224;6.580;2023-05-16T09:46:05;11.60;99.90
52030;DHT22;38043;53.224;6.580;2023-05-16T09:48:31;11.90;99.90
52030;DHT22;38043;53.224;6.580;2023-05-16T09:50:56;12.20;99.90
52030;DHT22;38043;53.224;6.580;2023-05-16T09:53:27;12.30;99.90
52030;DHT22;38043;53.224;6.580;2023-05-16T09:56:00;12.40;99.90
52030;DHT22;38043;53.224;6.580;2023-05-16T09:58:30;12.40;99.90
52030;DHT22;38043;53.224;6.580;2023-05-16T10:00:56;12.30;99.90
52030;DHT22;38043;53.224;6.580;2023-05-16T10:03:22;12.20;99.90
52030;DHT22;38043;53.224;6.580;2023-05-16T10:05:49;12.10;99.90
52030;DHT22;38043;53.224;6.580;2023-05-16T10:08:14;12.40;99.90
52030;DHT22;38043;53.224;6.580;2023-05-16T10:10:40;12.70;99.90
52030;DHT22;38043;53.224;6.580;2023-05-16T10:13:06;13.20;99.90
52030;DHT22;38043;53.224;6.580;2023-05-16T10:15:33;13.40;99.90
52030;DHT22;38043;53.224;6.580;2023-05-16T10:18:01;13.50;99.90
52030;DHT22;38043;53.224;6.580;2023-05-16T10:20:27;13.60;99.90
52030;DHT22;38043;53.224;6.580;2023-05-16T10:22:54;13.60;99.90
52030;DHT22;38043;53.224;6.580;2023-05-16T10:25:25;13.30;99.90
52030;DHT22;38043;53.224;6.580;2023-05-16T10:27:53;13.00;99.90
52030;DHT22;38043;53.224;6.580;2023-05-16T10:30:18;12.70;99.90
52030;DHT22;38043;53.224;6.580;2023-05-16T10:32:44;12.80;99.90
52030;DHT22;38043;53.224;6.580;2023-05-16T10:35:10;13.00;99.90
52030;DHT22;38043;53.224;6.580;2023-05-16T10:37:36;12.80;99.90
52030;DHT22;38043;53.224;6.580;2023-05-16T10:40:02;12.60;99.90
52030;DHT22;38043;53.224;6.580;2023-05-16T10:42:30;12.90;99.90
52030;DHT22;38043;53.224;6.580;2023-05-16T10:45:07;13.20;99.90
52030;DHT22;38043;53.224;6.580;2023-05-16T10:47:33;13.50;99.90
52030;DHT22;38043;53.224;6.580;2023-05-16T10:49:59;13.90;99.90
52030;DHT22;38043;53.224;6.580;2023-05-16T10:52:31;14.00;99.90
52030;DHT22;38043;53.224;6.580;2023-05-16T10:54:58;14.00;99.90
52030;DHT22;38043;53.224;6.580;2023-05-16T10:57:26;14.10;99.90
52030;DHT22;38043;53.224;6.580;2023-05-16T10:59:52;14.00;99.90
52030;DHT22;38043;53.224;6.580;2023-05-16T11:04:48;14.10;99.90
52030;DHT22;38043;53.224;6.580;2023-05-16T11:07:15;13.90;99.90
52030;DHT22;38043;53.224;6.580;2023-05-16T11:09:45;13.60;99.90
52030;DHT22;38043;53.224;6.580;2023-05-16T11:12:11;13.80;99.90
52030;DHT22;38043;53.224;6.580;2023-05-16T11:14:40;14.10;99.90
52030;DHT22;38043;53.224;6.580;2023-05-16T11:17:13;14.30;99.90
52030;DHT22;38043;53.224;6.580;2023-05-16T11:19:42;14.40;99.80
52030;DHT22;38043;53.224;6.580;2023-05-16T11:24:37;14.70;99.90
52030;DHT22;38043;53.224;6.580;2023-05-16T11:27:03;14.60;99.10
52030;DHT22;38043;53.224;6.580;2023-05-16T11:29:32;14.50;99.90
52030;DHT22;38043;53.224;6.580;2023-05-16T11:31:59;14.30;99.80
52030;DHT22;38043;53.224;6.580;2023-05-16T11:34:25;14.00;99.90
52030;DHT22;38043;53.224;6.580;2023-05-16T11:36:50;13.90;99.90
52030;DHT22;38043;53.224;6.580;2023-05-16T11:39:16;13.60;99.90
52030;DHT22;38043;53.224;6.580;2023-05-16T11:41:43;13.40;99.90
52030;DHT22;38043;53.224;6.580;2023-05-16T11:44:13;13.20;99.90
52030;DHT22;38043;53.224;6.580;2023-05-16T11:46:38;13.20;99.90
52030;DHT22;38043;53.224;6.580;2023-05-16T11:49:05;13.50;99.90
52030;DHT22;38043;53.224;6.580;2023-05-16T11:51:31;14.00;99.90
52030;DHT22;38043;53.224;6.580;2023-05-16T11:53:59;14.00;99.90
52030;DHT22;38043;53.224;6.580;2023-05-16T11:56:25;13.80;99.90
52030;DHT22;38043;53.224;6.580;2023-05-16T11:58:54;13.70;99.90
52030;DHT22;38043;53.224;6.580;2023-05-16T12:01:20;13.60;99.90
52030;DHT22;38043;53.224;6.580;2023-05-16T12:03:52;13.50;99.90
52030;DHT22;38043;53.224;6.580;2023-05-16T12:06:18;13.40;99.90
52030;DHT22;38043;53.224;6.580;2023-05-16T12:08:50;13.40;99.90
52030;DHT22;38043;53.224;6.580;2023-05-16T12:11:16;13.40;99.90
52030;DHT22;38043;53.224;6.580;2023-05-16T12:13:42;13.40;99.90
52030;DHT22;38043;53.224;6.580;2023-05-16T12:16:08;13.60;99.90
52030;DHT22;38043;53.224;6.580;2023-05-16T12:18:46;13.60;99.90
52030;DHT22;38043;53.224;6.580;2023-05-16T12:21:12;13.50;99.90
52030;DHT22;38043;53.224;6.580;2023-05-16T12:23:38;13.40;99.90
52030;DHT22;38043;53.224;6.580;2023-05-16T12:26:06;13.40;99.90
52030;DHT22;38043;53.224;6.580;2023-05-16T12:28:32;13.40;99.90
52030;DHT22;38043;53.224;6.580;2023-05-16T12:30:59;13.40;99.90
52030;DHT22;38043;53.224;6.580;2023-05-16T12:33:24;13.40;99.90
52030;DHT22;38043;53.224;6.580;2023-05-16T12:35:50;13.40;99.90
52030;DHT22;38043;53.224;6.580;2023-05-16T12:38:18;13.50;99.90
52030;DHT22;38043;53.224;6.580;2023-05-16T12:40:44;13.40;99.90
52030;DHT22;38043;53.224;6.580;2023-05-16T12:43:18;13.20;99.90
52030;DHT22;38043;53.224;6.580;2023-05-16T12:48:16;12.70;99.90
52030;DHT22;38043;53.224;6.580;2023-05-16T12:50:42;12.40;99.90
52030;DHT22;38043;53.224;6.580;2023-05-16T12:53:11;12.20;99.90
52030;DHT22;38043;53.224;6.580;2023-05-16T12:55:40;12.20;99.90
52030;DHT22;38043;53.224;6.580;2023-05-16T12:58:05;12.40;99.90
52030;DHT22;38043;53.224;6.580;2023-05-16T13:00:32;12.70;99.90
52030;DHT22;38043;53.224;6.580;2023-05-16T13:02:57;13.00;99.90
52030;DHT22;38043;53.224;6.580;2023-05-16T13:05:23;13.30;99.90
52030;DHT22;38043;53.224;6.580;2023-05-16T13:07:49;13.60;99.90
52030;DHT22;38043;53.224;6.580;2023-05-16T13:10:16;13.90;99.90
52030;DHT22;38043;53.224;6.580;2023-05-16T13:12:41;14.10;99.90
52030;DHT22;38043;53.224;6.580;2023-05-16T13:15:07;13.90;99.90
52030;DHT22;38043;53.224;6.580;2023-05-16T13:17:34;14.10;99.90
52030;DHT22;38043;53.224;6.580;2023-05-16T13:19:59;14.40;99.90
52030;DHT22;38043;53.224;6.580;2023-05-16T13:22:25;14.80;99.90
52030;DHT22;38043;53.224;6.580;2023-05-16T13:24:51;14.80;99.70
52030;DHT22;38043;53.224;6.580;2023-05-16T13:27:16;14.30;99.90
52030;DHT22;38043;53.224;6.580;2023-05-16T13:29:42;14.00;99.90
52030;DHT22;38043;53.224;6.580;2023-05-16T13:32:08;13.70;99.90
52030;DHT22;38043;53.224;6.580;2023-05-16T13:34:33;13.50;99.90
52030;DHT22;38043;53.224;6.580;2023-05-16T13:36:59;13.50;99.90
52030;DHT22;38043;53.224;6.580;2023-05-16T13:39:24;13.50;99.90
52030;DHT22;38043;53.224;6.580;2023-05-16T13:41:50;13.60;99.90
52030;DHT22;38043;53.224;6.580;2023-05-16T13:44:17;13.90;99.90
52030;DHT22;38043;53.224;6.580;2023-05-16T13:46:43;14.10;99.90
52030;DHT22;38043;53.224;6.580;2023-05-16T13:49:08;14.10;99.90
52030;DHT22;38043;53.224;6.580;2023-05-16T13:51:34;14.00;99.90
52030;DHT22;38043;53.224;6.580;2023-05-16T13:53:59;13.90;99.90
52030;DHT22;38043;53.224;6.580;2023-05-16T13:56:25;13.80;99.90
52030;DHT22;38043;53.224;6.580;2023-05-16T13:58:51;13.70;99.90
52030;DHT22;38043;53.224;6.580;2023-05-16T14:01:16;13.70;99.90
52030;DHT22;38043;53.224;6.580;2023-05-16T14:03:42;13.90;99.90
52030;DHT22;38043;53.224;6.580;2023-05-16T14:06:08;14.00;99.90
52030;DHT22;38043;53.224;6.580;2023-05-16T14:08:34;14.10;99.90
52030;DHT22;38043;53.224;6.580;2023-05-16T14:11:00;14.40;99.90
52030;DHT22;38043;53.224;6.580;2023-05-16T14:13:25;14.70;99.90
52030;DHT22;38043;53.224;6.580;2023-05-16T14:15:51;14.90;99.90
52030;DHT22;38043;53.224;6.580;2023-05-16T14:18:17;14.70;99.90
52030;DHT22;38043;53.224;6.580;2023-05-16T14:20:42;14.50;99.90
52030;DHT22;38043;53.224;6.580;2023-05-16T14:23:12;14.10;99.90
52030;DHT22;38043;53.224;6.580;2023-05-16T14:25:40;13.80;99.90
52030;DHT22;38043;53.224;6.580;2023-05-16T14:28:06;13.50;99.90
52030;DHT22;38043;53.224;6.580;2023-05-16T14:30:32;14.10;99.90
52030;DHT22;38043;53.224;6.580;2023-05-16T14:32:57;14.60;99.90
52030;DHT22;38043;53.224;6.580;2023-05-16T14:35:23;14.40;99.90
52030;DHT22;38043;53.224;6.580;2023-05-16T14:37:49;13.80;99.90
52030;DHT22;38043;53.224;6.580;2023-05-16T14:40:14;13.40;99.90
52030;DHT22;38043;53.224;6.580;2023-05-16T14:42:40;12.90;99.90
52030;DHT22;38043;53.224;6.580;2023-05-16T14:45:06;12.30;99.90
52030;DHT22;38043;53.224;6.580;2023-05-16T14:47:32;12.20;99.90
52030;DHT22;38043;53.224;6.580;2023-05-16T14:49:58;12.60;99.90
52030;DHT22;38043;53.224;6.580;2023-05-16T14:52:25;13.50;99.90
52030;DHT22;38043;53.224;6.580;2023-05-16T14:54:51;14.00;99.90
52030;DHT22;38043;53.224;6.580;2023-05-16T14:57:16;14.30;99.90
52030;DHT22;38043;53.224;6.580;2023-05-16T14:59:42;14.30;99.90
52030;DHT22;38043;53.224;6.580;2023-05-16T15:02:07;14.00;99.90
52030;DHT22;38043;53.224;6.580;2023-05-16T15:04:33;13.80;99.90
52030;DHT22;38043;53.224;6.580;2023-05-16T15:06:58;13.50;99.90
52030;DHT22;38043;53.224;6.580;2023-05-16T15:09:24;13.30;99.90
52030;DHT22;38043;53.224;6.580;2023-05-16T15:11:49;13.10;99.90
52030;DHT22;38043;53.224;6.580;2023-05-16T15:14:15;13.10;99.90
52030;DHT22;38043;53.224;6.580;2023-05-16T15:16:41;13.10;99.90
52030;DHT22;38043;53.224;6.580;2023-05-16T15:19:06;13.10;99.90
52030;DHT22;38043;53.224;6.580;2023-05-16T15:21:32;13.10;99.90
52030;DHT22;38043;53.224;6.580;2023-05-16T15:23:58;13.10;99.90
52030;DHT22;38043;53.224;6.580;2023-05-16T15:26:23;13.10;99.90
52030;DHT22;38043;53.224;6.580;2023-05-16T15:28:49;13.00;99.90
52030;DHT22;38043;53.224;6.580;2023-05-16T15:31:15;13.00;99.90
52030;DHT22;38043;53.224;6.580;2023-05-16T15:33:40;13.00;99.90
52030;DHT22;38043;53.224;6.580;2023-05-16T15:36:06;13.00;99.90
52030;DHT22;38043;53.224;6.580;2023-05-16T15:38:32;13.00;99.90